Terminal Aerodrome Forecast
Issued by NWS

Home | Current Version | Previous Version | Graphics & Text | Print | Product List | Glossary On
Versions: 1 2 3 4 5 6 7 8 9 10 11 12 13 14 15 16 17 18 19 20
000
FTUS43 KGRB 152300
TAFATW
TAF
KATW 152331Z 1600/1624 28007KT P6SM SCT060
     FM160300 VRB03KT P6SM BKN200
     FM160800 13005KT P6SM BKN110
     FM161400 13013G23KT 4SM -SN SCT028 OVC045
      TEMPO 1614/1618 -RASN
     FM161800 14016G26KT P6SM SCT050 BKN100=

USA.gov is the U.S. government's official web portal to all federal, state and local government web resources and services.